If you wish to contribute or participate in the discussions about articles you are invited to join SKYbrary as a registered user

 Actions

Plan De Guadalupe International Airport

From SKYbrary Wiki

MMIO
Airport
ICAO: MMIO – IATA: SLW
Summary
Name Plan De Guadalupe International Airport
Region South America and Caribbean
Territory Mexico MX.gif
Location Ramos Arizpe, Coahuila de Zaragoza
Serving Saltillo
Elevation 1,456.334 m
4,778 ft
4,778 ft1,456.334 m
Type medium airport
Coordinates 25° 32' 58.19" N, 100° 55' 43.21" W
Runways
Designator Length Width Surface ROPS
3/21 1058 m3,471.129 ft
45 m147.638 ft
ASP /
17/35 2897 m9,504.593 ft
45 m147.638 ft
ASP yes/yes


METAR
Observation MMIO 161340Z 18008KT 10SM BKN200 21/06 A3008 RMK 8/008 AC
Station Saltillo, Coah.
Date/Time 16 April 2019 13:40:00
Wind direction 180°
Wind speed 08 kts
Lowest cloud amount broken clouds
Temperature 21°C
Dew point 6°C
Humidity 37%
QNH hPa
Weather condition n/a

Plan de Guadalupe International Airport is an airport located at Ramos Arizpe in the state of Coahuila in Mexico.

Climatology

Hot Desert Climate (Köppen climate classification BWh)

Maps

Terrain

Loading map...

Airport Layout

Loading map...


Accidents & Serious Incidents at or in vicinity of MMIO

None on SKYbrary